Detall de PIREP

Printer-friendly versionPDF version

[2014/12/19 16:28:00]
Flight IATA:CT1004
Pilot Number:012
Company ICAO:CAT
Aircraft Type:B463/A
PAX:100
Aircraft Registration:PAX
Departing Airport: EGLC
Destination Airport: LEDA
Alternate Airport:LEBL
Online: VATSIM
Route:LYD UM189 DRAKE UL151 SITET UN859 BALAN UL152 MAKOX UN860 GRAUS G23 ALOSU
Flight Level:F290
No Slew and time accel
No pause
Crash detect
Detect pilot in Cockpit between each 30 and 45 minutes
16:28 Zero fuel Weight: 74655 Lbs, Fuel Weight: 20132 Lbs
16:28 VATSIM:EGLC 191550Z 27013KT 9999 FEW040 09/01 Q1018
16:28 VATSIM:LEDA 191600Z 00000KT 9999 BKN013 09/09 Q1028
16:29 X-MAS CHARTER
16:31 Parking Brakes off
16:36 Take-off
16:36 Take off Weight: 94363 Lbs
16:36 Wind: 271º @ 013 Knots Heading: 272º
16:36 POS N51º 30´ 19´´ E000º 02´ 56´´
16:36 Gear Up: 150 Knots
16:36 Flaps:2 at 150 Knots
16:37 Flaps:1 at 216 Knots
16:37 Flaps:0 at 216 Knots
16:49 TOC
16:49 Fuel Weight: 17272 Lb
16:51 Wind:265º@082 Knots Heading: 230º Ground Speed: 354 Knots Altitude 29488 ft
16:53 TOD
16:53 Fuel Weight: 16879 Lb
16:55 TOC
16:55 Fuel Weight: 16640 Lb
16:55 TOD
16:55 Fuel Weight: 16633 Lb
16:55 TOC
16:55 Fuel Weight: 16616 Lb
17:06 Wind:275º@092 Knots Heading: 177º Ground Speed: 426 Knots Altitude 29248 ft
17:21 Wind:273º@083 Knots Heading: 176º Ground Speed: 428 Knots Altitude 29288 ft
17:36 Wind:270º@080 Knots Heading: 191º Ground Speed: 403 Knots Altitude 29406 ft
17:51 Wind:277º@061 Knots Heading: 199º Ground Speed: 401 Knots Altitude 29517 ft
18:03 TOD
18:03 Fuel Weight: 10278 Lb
18:06 Wind:299º@042 Knots Heading: 196º Ground Speed: 389 Knots Altitude 24570 ft
18:16 Flaps:1 at 219 Knots
18:21 Wind:294º@005 Knots Heading: 308º Ground Speed: 186 Knots Altitude 3005 ft
18:21 Flaps:2 at 185 Knots
18:22 Gear Down: 182 Knots
18:23 Flaps:3 at 168 Knots
18:23 Flaps:4 at 137 Knots
18:25 TouchDown:Rate -124 ft/min Speed: 118 Knots
18:25 VATSIM:LEDA 191600Z 00000KT 9999 BKN013 09/09 Q1028
18:25 Land
18:25 Wind:294º@005 Knots
18:25 Heading: 312º
18:25 Flight Duration: 01:49
18:25 Landing Weight: 83883 Lbs
18:25 POS N41º 43´ 39´´ E000º 32´ 09´´
18:28 Parking brakes on
18:28 Block to Block Duration: 01:57
18:28 Final Fuel: 9102 Lbls
18:28 Spent Fuel: 11029 Lbls
18:28 Flight Length: 668 NM
18:28 TOD Land Length: 99 NM

Exportar CSV

Powered by Drupal - Modified by Danger4k